• Join FlightAware (Why Join?)
  • Login
  • US Flag 
04:40AM EDT


 

Airport Tracker/Info


-or-


 

Live Flight TrackerFlight Track Log ✈ SWA2004 ✈ 05-May-2013 ✈ KMSY - KMDW

Flight Track Log - Related Links

Times and Time Zones

All times are in EDT time to prevent confusion due to time zone crossing. See the SWA2004 flight status page for this flight to view local times or setup timezone preferences in your user account.

Time Position Orientation Groundspeed Altitude Reporting Facility
EDT Latitude Longitude Course Direction KTS MPH feet Rate Location/Type
08:12AM 29.9956 -90.2794 281° West 147 169 600  Level Houston Center
08:13AM 29.9983 -90.2961 281° West 150 173 1,400 1,980 Climbing Houston Center
08:14AM 30.0267 -90.3297 314° West 190 219 3,100 2,520 Climbing Houston Center
08:15AM 30.0847 -90.3431 349° North 213 245 6,100 3,120 Climbing Houston Center
08:16AM 30.1561 -90.3389 North 242 278 9,500 2,820 Climbing Houston Center
08:17AM 30.2372 -90.3372 North 281 323 11,900 2,760 Climbing Houston Center
08:18AM 30.3322 -90.3414 358° North 335 386 15,100 3,240 Climbing Houston Center
08:19AM 30.4256 -90.3636 348° North 340 391 18,500 3,000 Climbing Houston Center
08:20AM 30.5242 -90.3839 350° North 355 409 21,200 2,520 Climbing Houston Center
08:21AM 30.6325 -90.3786 North 385 443 23,700 2,280 Climbing Houston Center
08:22AM 30.7453 -90.3747 North 396 456 25,900 1,980 Climbing Houston Center
08:23AM 30.8625 -90.3717 North 416 479 27,800 2,040 Climbing Houston Center
08:24AM 30.9817 -90.3669 North 425 489 30,100 2,160 Climbing Houston Center
08:25AM 31.1008 -90.3625 North 426 490 32,300 1,860 Climbing Houston Center
08:26AM 31.2161 -90.3594 North 419 482 34,000 1,380 Climbing Houston Center
08:27AM 31.3342 -90.3542 North 420 483 35,200 960 Climbing Houston Center
08:28AM 31.4539 -90.3511 North 426 490 36,000 360 Climbing Houston Center
08:29AM 31.5750 -90.3469 North 431 496 36,000 360 Level Houston Center
08:30AM 31.7194 -90.3419 North 432 497 36,800 1,080 Climbing Houston Center
08:31AM 31.8450 -90.3367 North 444 511 38,200 1,260 Climbing Houston Center
08:32AM 31.9539 -90.3328 North 435 501 39,300 840 Climbing Memphis Center
08:33AM 32.0769 -90.3281 North 435 501 39,900 300 Climbing Memphis Center
08:34AM 32.1981 -90.3256 North 440 506 40,000  Climbing Memphis Center
08:35AM 32.3233 -90.3181 North 440 506 40,000  Level Memphis Center
08:36AM 32.4444 -90.3156 North 440 506 40,000  Level Memphis Center
08:37AM 32.5675 -90.3106 North 440 506 40,000  Level Memphis Center
08:38AM 32.6928 -90.3056 North 440 506 40,000  Level Memphis Center
08:39AM 32.8139 -90.3031 North 440 506 40,000  Level Memphis Center
08:40AM 32.9369 -90.3003 North 440 506 40,000  Level Memphis Center
08:41AM 33.0581 -90.2928 North 440 506 40,000  Level Memphis Center
08:42AM 33.1814 -90.2903 North 440 506 40,000  Level Memphis Center
08:43AM 33.3044 -90.2853 North 440 506 40,000  Level Memphis Center
08:44AM 33.4297 -90.2825 North 440 506 40,000  Level Memphis Center
08:45AM 33.5528 -90.2650 North 440 506 40,000  Level Memphis Center
08:46AM 33.6758 -90.2425 North 445 512 40,000  Level Memphis Center
08:47AM 33.8011 -90.2172 10° North 445 512 40,000  Level Memphis Center
08:48AM 33.9242 -90.1919 10° North 445 512 40,000  Level Memphis Center
08:49AM 34.0347 -90.1742 North 445 512 40,000  Level Memphis Center
08:50AM 34.1622 -90.1489 North 451 519 40,000  Level Memphis Center
08:51AM 34.2853 -90.1233 10° North 451 519 40,000  Level Memphis Center
08:52AM 34.4125 -90.1003 North 451 519 40,000  Level Memphis Center
08:53AM 34.5375 -90.0772 North 451 519 40,000  Level Memphis Center
08:54AM 34.6731 -90.0542 North 451 519 40,000  Level Memphis Center
08:55AM 34.7983 -90.0308 North 451 519 40,000  Level Memphis Center
08:56AM 34.9233 -90.0075 North 451 519 40,000  Level Memphis Center
08:57AM 35.0486 -89.9792 10° North 451 519 40,000  Level Memphis Center
08:58AM 35.1714 -89.9481 12° North 446 513 40,000  Level Memphis Center
08:59AM 35.2797 -89.9247 10° North 446 513 40,000  Level Memphis Center
09:00AM 35.4050 -89.8933 12° North 446 513 40,000  Level Memphis Center
09:01AM 35.5278 -89.8647 11° North 446 513 40,000  Level Memphis Center
09:02AM 35.6508 -89.8333 12° North 446 513 40,000  Level Memphis Center
09:03AM 35.7778 -89.8069 10° North 442 509 40,000  Level Memphis Center
09:04AM 35.8986 -89.7753 12° North 437 503 40,000  Level Memphis Center
09:05AM 36.0236 -89.7514 North 437 503 40,000  Level Memphis Center
09:06AM 36.1486 -89.7194 12° North 444 511 40,000  Level Memphis Center
09:07AM 36.2589 -89.6956 10° North 449 517 40,000  Level Memphis Center
09:08AM 36.3839 -89.6686 10° North 449 517 40,000  Level Memphis Center
09:09AM 36.5089 -89.6367 12° North 449 517 40,000  Level Memphis Center
09:10AM 36.6317 -89.6044 12° North 449 517 40,000  Level Memphis Center
09:11AM 36.7586 -89.5747 11° North 449 517 40,000  Level Memphis Center
09:12AM 36.8814 -89.5478 10° North 449 517 40,000  Level Memphis Center
09:13AM 37.0042 -89.5178 11° North 449 517 40,000  Level Memphis Center
09:15AM 37.2719 -89.4461 12° North 446 513 40,000  Level Kansas City Center
09:16AM 37.3958 -89.4161 11° North 450 518 40,000  Level Kansas City Center
09:17AM 37.5192 -89.3858 11° North 451 519 40,000  Level Kansas City Center
09:18AM 37.6433 -89.3525 12° North 453 521 40,000  Level Kansas City Center
09:19AM 37.7675 -89.3242 10° North 453 521 40,000  Level Kansas City Center
09:20AM 37.9000 -89.2911 11° North 459 528 40,000  Level Kansas City Center
09:21AM 38.0328 -89.2564 12° North 455 524 40,000  Level Kansas City Center
09:22AM 38.1558 -89.2258 11° North 452 520 40,000  Level Kansas City Center
09:23AM 38.2792 -89.1947 11° North 453 521 40,000  Level Kansas City Center
09:24AM 38.4117 -89.1625 11° North 452 520 40,000  Level Kansas City Center
09:25AM 38.5344 -89.1406 North 448 516 40,000  Level Kansas City Center
09:26AM 38.6572 -89.1194 North 447 514 40,000 -480 Level Kansas City Center
09:27AM 38.7800 -89.0972 North 447 514 39,100 -960 Descending Kansas City Center
09:28AM 38.9081 -89.0753 North 435 501 38,100 -960 Descending Kansas City Center
09:29AM 39.0267 -89.0542 North 431 496 37,200 -1,680 Descending Kansas City Center
09:30AM 39.1475 -89.0339 North 436 502 34,700 -3,180 Descending Kansas City Center
09:31AM 39.2733 -89.0097 North 456 525 30,800 -2,520 Descending Kansas City Center
09:32AM 39.3997 -88.9892 North 461 531 29,600 -900 Descending Kansas City Center
09:33AM 39.5189 -88.9675 North 425 489 29,000 -300 Descending Kansas City Center
09:34AM 39.6314 -88.9472 North 412 474 29,000  Level Kansas City Center
09:35AM 39.7456 -88.9267 North 413 475 29,000  Level Kansas City Center
09:36AM 39.8594 -88.9069 North 414 476 29,000  Level Kansas City Center
09:37AM 39.9722 -88.8861 North 411 473 29,000 -420 Level Kansas City Center
09:38AM 40.0881 -88.8656 North 418 481 28,200 -1,260 Descending Kansas City Center
09:39AM 40.1328 -88.8578 North 417 480 27,300 -3,060 Descending Chicago Center
09:40AM 40.2464 -88.8389 North 414 476 24,100 -2,460 Descending Chicago Center
09:41AM 40.3597 -88.8172 North 414 476 22,300 -1,980 Descending Chicago Center
09:42AM 40.4831 -88.7961 North 390 449 20,100 -1,980 Descending Chicago Center
09:43AM 40.5814 -88.7778 North 365 420 18,300 -1,680 Descending Chicago Center
09:44AM 40.6781 -88.7611 North 355 409 16,700 -1,620 Descending Chicago Center
09:45AM 40.7692 -88.7442 North 339 390 15,100 -1,260 Descending Chicago Center
09:46AM 40.8569 -88.7119 16° North 337 388 14,200 -960 Descending Chicago Center
09:47AM 40.9392 -88.6642 24° Northeast 326 375 13,200 -1,080 Descending Chicago Center
09:48AM 41.0372 -88.6092 23° Northeast 322 371 12,000 -1,140 Descending Chicago Center
09:49AM 41.1150 -88.5647 23° Northeast 309 356 10,900 -1,020 Descending Chicago Center
09:50AM 41.1886 -88.5225 23° Northeast 296 341 10,000 -1,080 Descending Chicago Center
09:51AM 41.2569 -88.4839 23° Northeast 277 319 8,700 -1,320 Descending Chicago Center
09:52AM 41.3269 -88.4439 23° Northeast 272 313 7,300 -1,320 Descending Chicago Center
09:53AM 41.3953 -88.4047 23° Northeast 270 311 6,000 -660 Descending Chicago Center
09:54AM 41.4586 -88.3622 27° Northeast 263 303 6,000  Level Chicago Center
09:55AM 41.4944 -88.2817 59° Northeast 256 295 6,000 -300 Level Chicago Center
09:56AM 41.5297 -88.2003 60° Northeast 252 290 5,400 -540 Descending Chicago Center
09:57AM 41.5728 -88.1028 59° Northeast 252 290 5,000 -300 Descending Chicago Center
09:58AM 41.6067 -88.0233 60° Northeast 249 287 4,900 -540 Descending Chicago Center
09:59AM 41.6406 -87.9478 59° Northeast 242 278 4,000 -720 Descending Chicago Center
10:00AM 41.6747 -87.8925 50° Northeast 211 243 3,500 -780 Descending Chicago Center
10:01AM 41.7000 -87.8500 51° Northeast 167 192 2,600 -900 Descending Chicago TRACON
10:02AM 41.7333 -87.8167 37° Northeast 148 170 1,900 -780 Descending Chicago TRACON
10:03AM 41.7667 -87.7833 37° Northeast 129 148 1,100 -780 Descending Chicago TRACON